createdAt,value
2022-08-27T00:02:22.334Z,21.60
2022-08-27T00:04:51.557Z,21.60
2022-08-27T00:07:19.907Z,21.50
2022-08-27T00:12:33.550Z,21.50
2022-08-27T00:15:07.811Z,21.50
2022-08-27T00:17:40.319Z,21.40
2022-08-27T00:20:17.407Z,21.30
2022-08-27T00:22:46.145Z,21.30
2022-08-27T00:25:18.604Z,21.30
2022-08-27T00:27:48.469Z,21.30
2022-08-27T00:30:19.503Z,21.30
2022-08-27T00:32:48.856Z,21.30
2022-08-27T00:35:20.685Z,21.30
2022-08-27T00:37:52.095Z,21.20
2022-08-27T00:40:24.933Z,21.20
2022-08-27T00:42:57.214Z,21.20
2022-08-27T00:45:27.166Z,21.10
2022-08-27T00:47:58.292Z,21.10
2022-08-27T00:50:51.227Z,21.00
2022-08-27T00:53:23.608Z,20.90
2022-08-27T00:56:22.032Z,20.90
2022-08-27T00:59:00.292Z,21.00
2022-08-27T01:01:32.401Z,20.90
2022-08-27T01:04:06.104Z,20.90
2022-08-27T01:06:37.538Z,20.90
2022-08-27T01:09:16.787Z,20.80
2022-08-27T01:11:53.343Z,20.80
2022-08-27T01:14:24.612Z,20.80
2022-08-27T01:16:57.616Z,20.80
2022-08-27T01:19:46.735Z,20.70
2022-08-27T01:23:04.374Z,20.80
2022-08-27T01:28:17.835Z,20.70
2022-08-27T01:30:54.081Z,20.60
2022-08-27T01:33:24.892Z,20.60
2022-08-27T01:35:55.663Z,20.60
2022-08-27T01:41:10.007Z,20.60
2022-08-27T01:46:28.710Z,20.50
2022-08-27T01:48:59.705Z,20.50
2022-08-27T01:51:30.921Z,20.50
2022-08-27T01:54:00.124Z,20.50
2022-08-27T01:56:32.540Z,20.50
2022-08-27T02:04:32.477Z,20.60
2022-08-27T02:09:48.139Z,20.60
2022-08-27T02:12:22.167Z,20.60
2022-08-27T02:14:53.209Z,20.60
2022-08-27T02:17:25.312Z,20.60
2022-08-27T02:19:58.401Z,20.60
2022-08-27T02:22:30.808Z,20.60
2022-08-27T02:25:00.521Z,20.60
2022-08-27T02:27:28.865Z,20.60
2022-08-27T02:30:00.224Z,20.60
2022-08-27T02:32:32.135Z,20.60
2022-08-27T02:37:47.547Z,20.60
2022-08-27T02:40:21.827Z,20.50
2022-08-27T02:45:37.976Z,20.50
2022-08-27T02:48:09.969Z,20.50
2022-08-27T02:50:41.957Z,20.40
2022-08-27T02:53:13.242Z,20.40
2022-08-27T02:55:44.291Z,20.50
2022-08-27T02:58:16.880Z,20.40
2022-08-27T03:00:49.765Z,20.40
2022-08-27T03:03:23.476Z,20.40
2022-08-27T03:05:54.234Z,20.50
2022-08-27T03:08:30.381Z,20.40
2022-08-27T03:11:22.387Z,20.40
2022-08-27T03:16:35.793Z,20.40
2022-08-27T03:19:07.625Z,20.30
2022-08-27T03:21:44.660Z,20.30
2022-08-27T03:24:33.126Z,20.30
2022-08-27T03:27:06.845Z,20.30
2022-08-27T03:29:43.633Z,20.30
2022-08-27T03:32:15.300Z,20.20
2022-08-27T03:34:48.166Z,20.20
2022-08-27T03:42:44.703Z,20.10
2022-08-27T03:45:19.294Z,20.10
2022-08-27T03:47:48.274Z,20.00
2022-08-27T03:50:19.400Z,20.00
2022-08-27T03:55:33.850Z,19.80
2022-08-27T04:00:46.286Z,19.70
2022-08-27T04:03:19.074Z,19.70
2022-08-27T04:05:55.975Z,19.70
2022-08-27T04:08:26.763Z,19.70
2022-08-27T04:11:04.482Z,19.60
2022-08-27T04:13:33.795Z,19.60
2022-08-27T04:16:05.790Z,19.60
2022-08-27T04:18:35.260Z,19.60
2022-08-27T04:21:12.109Z,19.60
2022-08-27T04:23:44.366Z,19.60
2022-08-27T04:26:16.128Z,19.50
2022-08-27T04:28:48.968Z,19.60
2022-08-27T04:31:18.654Z,19.60
2022-08-27T04:33:51.305Z,19.70
2022-08-27T04:36:21.074Z,19.70
2022-08-27T04:38:48.939Z,19.70
2022-08-27T04:41:27.562Z,19.60
2022-08-27T04:43:57.527Z,19.60
2022-08-27T04:46:31.751Z,19.70
2022-08-27T04:49:10.345Z,19.70
2022-08-27T04:51:43.393Z,19.70
2022-08-27T04:54:12.655Z,19.70
2022-08-27T04:56:43.726Z,19.70
2022-08-27T05:01:56.002Z,19.80
2022-08-27T05:04:26.297Z,19.90
2022-08-27T05:06:57.797Z,19.90
2022-08-27T05:09:28.931Z,19.90
2022-08-27T05:11:58.555Z,20.00
2022-08-27T05:14:32.905Z,20.00
2022-08-27T05:17:06.722Z,20.10
2022-08-27T05:19:36.414Z,20.10
2022-08-27T05:22:07.356Z,20.20
2022-08-27T05:24:36.257Z,20.20
2022-08-27T05:27:06.458Z,20.30
2022-08-27T05:29:37.857Z,20.30
2022-08-27T05:32:06.315Z,20.30
2022-08-27T05:34:36.209Z,20.40
2022-08-27T05:37:07.724Z,20.40
2022-08-27T05:39:36.619Z,20.50
2022-08-27T05:42:07.725Z,20.50
2022-08-27T05:44:42.089Z,20.60
2022-08-27T05:47:14.480Z,20.70
2022-08-27T05:49:42.896Z,20.80
2022-08-27T05:54:56.246Z,21.10
2022-08-27T05:57:27.270Z,21.20
2022-08-27T06:00:18.100Z,21.40
2022-08-27T06:02:46.827Z,21.60
2022-08-27T06:05:19.743Z,21.70
2022-08-27T06:07:50.375Z,21.80
2022-08-27T06:10:19.961Z,21.90
2022-08-27T06:12:56.293Z,21.90
2022-08-27T06:15:25.847Z,22.00
2022-08-27T06:17:56.602Z,22.00
2022-08-27T06:20:27.720Z,22.10
2022-08-27T06:22:56.447Z,22.10
2022-08-27T06:25:27.130Z,22.20
2022-08-27T06:27:57.276Z,22.40
2022-08-27T06:30:34.524Z,22.50
2022-08-27T06:33:02.948Z,22.60
2022-08-27T06:35:33.957Z,22.80
2022-08-27T06:38:05.172Z,22.90
2022-08-27T06:40:33.291Z,22.90
2022-08-27T06:43:04.592Z,23.00
2022-08-27T06:45:35.869Z,23.10
2022-08-27T06:48:04.987Z,23.20
2022-08-27T06:50:48.177Z,23.30
2022-08-27T06:53:24.349Z,23.40
2022-08-27T06:55:54.556Z,23.40
2022-08-27T06:58:23.237Z,23.40
2022-08-27T07:00:51.608Z,23.40
2022-08-27T07:03:19.101Z,23.40
2022-08-27T07:05:50.344Z,23.50
2022-08-27T07:08:20.591Z,23.50
2022-08-27T07:10:51.003Z,23.50
2022-08-27T07:13:20.545Z,23.80
2022-08-27T07:15:49.307Z,24.00
2022-08-27T07:18:27.187Z,24.20
2022-08-27T07:20:56.631Z,24.40
2022-08-27T07:23:27.178Z,24.60
2022-08-27T07:25:59.212Z,24.70
2022-08-27T07:28:30.745Z,24.90
2022-08-27T07:31:00.819Z,25.00
2022-08-27T07:33:36.414Z,25.10
2022-08-27T07:36:07.927Z,25.30
2022-08-27T07:38:37.520Z,25.40
2022-08-27T07:41:07.387Z,25.40
2022-08-27T07:43:57.529Z,25.50
2022-08-27T07:49:11.373Z,25.70
2022-08-27T07:51:42.395Z,25.50
2022-08-27T07:54:18.509Z,25.30
2022-08-27T07:56:55.168Z,25.20
2022-08-27T07:59:27.338Z,25.10
2022-08-27T08:02:04.604Z,25.10
2022-08-27T08:04:36.484Z,25.30
2022-08-27T08:07:06.935Z,25.40
2022-08-27T08:12:20.515Z,25.70
2022-08-27T08:15:00.222Z,25.70
2022-08-27T08:17:28.908Z,25.80
2022-08-27T08:20:20.025Z,25.90
2022-08-27T08:22:50.555Z,26.00
2022-08-27T08:25:22.759Z,26.00
2022-08-27T08:27:52.488Z,26.10
2022-08-27T08:30:21.045Z,26.30
2022-08-27T08:32:50.893Z,26.30
2022-08-27T08:35:22.005Z,26.30
2022-08-27T08:37:51.834Z,26.20
2022-08-27T08:40:43.377Z,26.20
2022-08-27T08:43:49.936Z,26.30
2022-08-27T08:46:29.489Z,26.40
2022-08-27T08:49:04.823Z,26.50
2022-08-27T08:51:43.396Z,26.70
2022-08-27T08:54:25.864Z,26.80
2022-08-27T08:57:03.461Z,26.80
2022-08-27T08:59:46.071Z,26.80
2022-08-27T09:02:25.687Z,26.90
2022-08-27T09:05:07.116Z,27.10
2022-08-27T09:08:09.945Z,27.10
2022-08-27T09:10:58.157Z,27.00
2022-08-27T09:14:12.815Z,26.90
2022-08-27T09:16:43.772Z,27.00
2022-08-27T09:22:06.184Z,26.80
2022-08-27T09:24:53.880Z,26.60
2022-08-27T09:27:27.462Z,26.50
2022-08-27T09:29:57.482Z,26.60
2022-08-27T09:32:29.043Z,26.70
2022-08-27T09:35:14.794Z,26.60
2022-08-27T09:37:51.711Z,26.70
2022-08-27T09:40:53.872Z,26.80
2022-08-27T09:43:27.073Z,27.00
2022-08-27T09:46:01.748Z,27.30
2022-08-27T09:48:35.872Z,27.40
2022-08-27T09:51:22.787Z,27.40
2022-08-27T09:54:14.397Z,27.30
2022-08-27T09:56:54.524Z,27.10
2022-08-27T09:59:35.446Z,27.00
2022-08-27T10:02:27.099Z,26.80
2022-08-27T10:05:01.758Z,26.90
2022-08-27T10:07:53.860Z,27.00
2022-08-27T10:10:46.976Z,27.00
2022-08-27T10:13:20.991Z,27.00
2022-08-27T10:16:26.462Z,27.00
2022-08-27T10:19:28.547Z,27.00
2022-08-27T10:22:07.373Z,27.20
2022-08-27T10:25:02.167Z,27.20
2022-08-27T10:28:10.420Z,27.20
2022-08-27T10:31:19.945Z,27.20
2022-08-27T10:34:21.145Z,27.30
2022-08-27T10:37:20.829Z,27.50
2022-08-27T10:40:11.646Z,27.60
2022-08-27T10:43:16.492Z,27.70
2022-08-27T10:46:26.288Z,27.80
2022-08-27T10:49:22.162Z,27.90
2022-08-27T10:52:25.754Z,28.10
2022-08-27T10:55:15.028Z,28.10
2022-08-27T10:58:21.081Z,28.10
2022-08-27T11:01:34.944Z,28.30
2022-08-27T11:04:25.768Z,28.30
2022-08-27T11:07:14.147Z,28.40
2022-08-27T11:09:50.788Z,28.60
2022-08-27T11:12:48.011Z,28.60
2022-08-27T11:15:26.832Z,28.60
2022-08-27T11:18:39.647Z,28.70
2022-08-27T11:21:19.679Z,28.80
2022-08-27T11:23:54.580Z,28.80
2022-08-27T11:26:23.252Z,29.00
2022-08-27T11:29:00.308Z,29.20
2022-08-27T11:31:35.758Z,29.10
2022-08-27T11:34:18.788Z,29.20
2022-08-27T11:37:38.783Z,29.30
2022-08-27T11:40:25.268Z,29.30
2022-08-27T11:42:57.993Z,29.40
2022-08-27T11:45:38.862Z,29.60
2022-08-27T11:48:26.535Z,29.60
2022-08-27T11:50:59.403Z,29.70
2022-08-27T11:53:33.025Z,29.80
2022-08-27T11:56:28.644Z,29.80
2022-08-27T11:59:10.625Z,29.90
2022-08-27T12:01:42.760Z,29.80
2022-08-27T12:04:24.433Z,29.90
2022-08-27T12:07:21.004Z,29.80
2022-08-27T12:10:00.374Z,29.90
2022-08-27T12:12:54.423Z,29.40
2022-08-27T12:15:49.862Z,29.30
2022-08-27T12:18:26.675Z,29.10
2022-08-27T12:21:20.093Z,28.80
2022-08-27T12:24:07.844Z,28.70
2022-08-27T12:26:43.928Z,28.80
2022-08-27T12:29:44.023Z,28.90
2022-08-27T12:32:40.036Z,29.00
2022-08-27T12:35:37.183Z,29.20
2022-08-27T12:38:18.886Z,29.30
2022-08-27T12:41:01.420Z,29.10
2022-08-27T12:43:33.942Z,29.10
2022-08-27T12:46:26.687Z,28.90
2022-08-27T12:49:35.906Z,29.20
2022-08-27T12:51:57.531Z,29.20
2022-08-27T12:55:01.250Z,29.20
2022-08-27T13:01:19.612Z,29.60
2022-08-27T13:03:52.986Z,29.60
2022-08-27T13:06:37.209Z,29.50
2022-08-27T13:09:10.990Z,29.60
2022-08-27T13:11:50.318Z,29.60
2022-08-27T13:14:21.555Z,29.40
2022-08-27T13:17:00.591Z,29.40
2022-08-27T13:19:32.170Z,29.50
2022-08-27T13:22:07.199Z,29.30
2022-08-27T13:24:48.543Z,29.20
2022-08-27T13:27:27.427Z,29.10
2022-08-27T13:30:05.931Z,29.10
2022-08-27T13:32:38.650Z,29.20
2022-08-27T13:35:10.697Z,29.30
2022-08-27T13:37:48.044Z,29.10
2022-08-27T13:40:39.561Z,28.90
2022-08-27T13:43:14.942Z,28.60
2022-08-27T13:45:49.133Z,28.50
2022-08-27T13:48:22.369Z,28.30
2022-08-27T13:50:57.548Z,28.20
2022-08-27T13:53:54.200Z,28.10
2022-08-27T13:56:35.702Z,28.00
2022-08-27T13:59:26.925Z,27.90
2022-08-27T14:02:17.326Z,28.00
2022-08-27T14:05:03.079Z,27.80
2022-08-27T14:07:39.534Z,27.90
2022-08-27T14:10:33.707Z,27.90
2022-08-27T14:13:16.655Z,27.80
2022-08-27T14:15:48.777Z,27.80
2022-08-27T14:18:57.797Z,27.80
2022-08-27T14:21:29.382Z,27.80
2022-08-27T14:23:59.939Z,27.80
2022-08-27T14:26:30.430Z,27.80
2022-08-27T14:29:01.749Z,27.80
2022-08-27T14:31:31.342Z,27.80
2022-08-27T14:33:58.990Z,27.90
2022-08-27T14:36:29.461Z,28.00
2022-08-27T14:38:58.611Z,28.10
2022-08-27T14:41:28.993Z,28.10
2022-08-27T14:43:59.479Z,28.20
2022-08-27T14:46:31.116Z,28.20
2022-08-27T14:49:00.936Z,28.20
2022-08-27T14:51:32.334Z,28.30
2022-08-27T14:56:49.128Z,28.30
2022-08-27T14:59:18.434Z,28.30
2022-08-27T15:01:49.572Z,28.20
2022-08-27T15:04:20.376Z,28.00
2022-08-27T15:06:49.035Z,28.00
2022-08-27T15:09:21.109Z,28.00
2022-08-27T15:11:50.569Z,28.00
2022-08-27T15:14:40.174Z,27.90
2022-08-27T15:17:20.016Z,27.70
2022-08-27T15:19:58.296Z,27.70
2022-08-27T15:22:34.115Z,27.50
2022-08-27T15:25:03.173Z,27.40
2022-08-27T15:27:38.287Z,27.30
2022-08-27T15:30:10.977Z,27.20
2022-08-27T15:32:50.850Z,27.20
2022-08-27T15:35:29.125Z,27.10
2022-08-27T15:37:58.512Z,27.10
2022-08-27T15:40:28.313Z,26.90
2022-08-27T15:43:05.846Z,26.90
2022-08-27T15:45:37.376Z,26.80
2022-08-27T15:48:11.251Z,26.70
2022-08-27T15:50:41.438Z,26.70
2022-08-27T15:53:15.560Z,26.70
2022-08-27T15:55:46.810Z,26.60
2022-08-27T15:58:18.262Z,26.60
2022-08-27T16:01:01.967Z,26.50
2022-08-27T16:03:35.600Z,26.40
2022-08-27T16:06:07.978Z,26.40
2022-08-27T16:08:36.787Z,26.30
2022-08-27T16:11:11.798Z,26.30
2022-08-27T16:13:43.773Z,26.30
2022-08-27T16:18:57.709Z,26.20
2022-08-27T16:24:11.279Z,26.20
2022-08-27T16:26:43.706Z,26.10
2022-08-27T16:29:14.387Z,26.10
2022-08-27T16:31:43.569Z,26.00
2022-08-27T16:34:32.327Z,26.00
2022-08-27T16:37:03.441Z,26.00
2022-08-27T16:39:34.592Z,26.00
2022-08-27T16:42:08.947Z,25.90
2022-08-27T16:44:38.665Z,25.90
2022-08-27T16:47:10.804Z,25.90
2022-08-27T16:50:00.373Z,25.80
2022-08-27T16:52:31.517Z,25.80
2022-08-27T16:55:00.493Z,25.70
2022-08-27T16:57:28.869Z,25.70
2022-08-27T16:59:57.159Z,25.70
2022-08-27T17:02:32.786Z,25.60
2022-08-27T17:05:23.854Z,25.60
2022-08-27T17:07:52.808Z,25.60
2022-08-27T17:10:22.307Z,25.50
2022-08-27T17:12:56.699Z,25.50
2022-08-27T17:15:34.592Z,25.40
2022-08-27T17:18:05.955Z,25.30
2022-08-27T17:20:42.964Z,25.30
2022-08-27T17:23:32.552Z,25.30
2022-08-27T17:26:00.417Z,25.30
2022-08-27T17:28:31.405Z,25.20
2022-08-27T17:31:09.504Z,25.20
2022-08-27T17:33:44.971Z,25.10
2022-08-27T17:39:03.811Z,25.00
2022-08-27T17:41:39.583Z,24.90
2022-08-27T17:44:32.980Z,24.90
2022-08-27T17:47:03.353Z,24.80
2022-08-27T17:52:20.878Z,24.70
2022-08-27T17:54:56.308Z,24.70
2022-08-27T17:57:40.406Z,24.60
2022-08-27T18:00:13.314Z,24.60
2022-08-27T18:02:51.857Z,24.60
2022-08-27T18:05:26.326Z,24.50
2022-08-27T18:08:00.710Z,24.50
2022-08-27T18:10:32.431Z,24.50
2022-08-27T18:13:05.448Z,24.50
2022-08-27T18:15:42.217Z,24.40
2022-08-27T18:18:15.548Z,24.40
2022-08-27T18:20:47.544Z,24.30
2022-08-27T18:23:20.401Z,24.30
2022-08-27T18:25:52.520Z,24.20
2022-08-27T18:28:22.522Z,24.10
2022-08-27T18:30:50.779Z,24.10
2022-08-27T18:33:20.450Z,24.10
2022-08-27T18:35:50.372Z,24.10
2022-08-27T18:38:20.808Z,24.00
2022-08-27T18:40:50.144Z,24.00
2022-08-27T18:43:23.377Z,24.00
2022-08-27T18:45:51.576Z,24.00
2022-08-27T18:48:23.732Z,23.90
2022-08-27T18:51:00.511Z,23.90
2022-08-27T18:53:33.837Z,23.80
2022-08-27T18:56:02.328Z,23.70
2022-08-27T18:58:30.491Z,23.60
2022-08-27T19:01:05.766Z,23.60
2022-08-27T19:03:40.951Z,23.60
2022-08-27T19:06:10.984Z,23.50
2022-08-27T19:08:42.490Z,23.50
2022-08-27T19:11:11.608Z,23.50
2022-08-27T19:13:39.579Z,23.50
2022-08-27T19:16:21.110Z,23.50
2022-08-27T19:18:51.178Z,23.50
2022-08-27T19:21:20.043Z,23.40
2022-08-27T19:23:51.805Z,23.40
2022-08-27T19:26:24.383Z,23.40
2022-08-27T19:28:55.728Z,23.30
2022-08-27T19:31:23.664Z,23.30
2022-08-27T19:36:40.113Z,23.20
2022-08-27T19:39:11.636Z,23.10
2022-08-27T19:41:43.027Z,23.10
2022-08-27T19:44:12.239Z,23.00
2022-08-27T19:46:43.201Z,22.80
2022-08-27T19:49:16.580Z,22.60
2022-08-27T19:51:45.168Z,22.60
2022-08-27T19:54:14.211Z,22.50
2022-08-27T19:56:43.412Z,22.30
2022-08-27T19:59:20.647Z,22.20
2022-08-27T20:01:54.859Z,22.10
2022-08-27T20:04:30.461Z,22.10
2022-08-27T20:07:02.126Z,22.10
2022-08-27T20:12:15.093Z,22.10
2022-08-27T20:14:47.106Z,22.00
2022-08-27T20:17:20.074Z,21.90
2022-08-27T20:19:50.642Z,22.00
2022-08-27T20:22:19.524Z,22.00
2022-08-27T20:24:48.303Z,22.00
2022-08-27T20:27:17.958Z,21.90
2022-08-27T20:29:47.701Z,21.70
2022-08-27T20:32:18.534Z,21.40
2022-08-27T20:34:47.594Z,21.30
2022-08-27T20:37:17.601Z,20.90
2022-08-27T20:39:46.468Z,20.70
2022-08-27T20:42:18.838Z,20.40
2022-08-27T20:44:48.138Z,20.20
2022-08-27T20:47:20.714Z,19.90
2022-08-27T20:49:51.082Z,19.70
2022-08-27T20:52:20.087Z,19.70
2022-08-27T20:54:48.016Z,19.60
2022-08-27T20:57:19.453Z,19.50
2022-08-27T21:00:08.189Z,19.40
2022-08-27T21:02:38.528Z,19.30
2022-08-27T21:05:11.615Z,19.30
2022-08-27T21:07:42.361Z,19.50
2022-08-27T21:10:13.238Z,19.40
2022-08-27T21:12:41.516Z,19.60
2022-08-27T21:15:13.190Z,19.40
2022-08-27T21:17:43.227Z,19.30
2022-08-27T21:20:11.899Z,19.30
2022-08-27T21:22:41.382Z,19.30
2022-08-27T21:35:15.662Z,19.40
2022-08-27T21:37:45.485Z,19.40
2022-08-27T21:40:14.145Z,19.40
2022-08-27T21:59:14.465Z,19.40
2022-08-27T22:01:43.325Z,19.40
2022-08-27T22:04:10.752Z,19.40
2022-08-27T22:06:41.848Z,19.30
2022-08-27T22:09:09.495Z,19.40
2022-08-27T22:11:40.544Z,19.40
2022-08-27T22:14:07.946Z,19.40
2022-08-27T22:16:42.158Z,19.40
2022-08-27T22:19:09.611Z,19.40
2022-08-27T22:21:41.727Z,19.30
2022-08-27T22:24:12.106Z,19.20
2022-08-27T22:26:41.305Z,19.10
2022-08-27T22:29:08.645Z,19.00
2022-08-27T22:31:39.974Z,19.00
2022-08-27T22:34:08.301Z,19.10
2022-08-27T22:36:43.626Z,19.00
2022-08-27T22:39:11.971Z,19.00
2022-08-27T22:41:46.141Z,19.00
2022-08-27T22:44:16.592Z,19.00
2022-08-27T22:46:45.391Z,19.00
2022-08-27T22:49:12.982Z,19.00
2022-08-27T22:51:42.598Z,19.00
2022-08-27T22:54:09.998Z,19.10
2022-08-27T22:56:37.676Z,19.10
2022-08-27T22:59:07.334Z,19.10
2022-08-27T23:01:36.362Z,19.10
2022-08-27T23:04:06.597Z,19.00
2022-08-27T23:06:34.454Z,19.00
2022-08-27T23:09:05.852Z,19.00
2022-08-27T23:11:34.120Z,19.10
2022-08-27T23:14:02.176Z,19.20
2022-08-27T23:16:31.851Z,19.10
2022-08-27T23:19:00.659Z,19.20
2022-08-27T23:21:30.218Z,19.20
2022-08-27T23:23:57.780Z,19.20
2022-08-27T23:26:44.395Z,19.10
2022-08-27T23:29:12.876Z,19.10
2022-08-27T23:31:43.329Z,18.90
2022-08-27T23:34:10.782Z,18.80
2022-08-27T23:36:40.681Z,18.80
2022-08-27T23:39:11.190Z,18.70
2022-08-27T23:41:41.260Z,18.70
2022-08-27T23:44:08.799Z,18.70
2022-08-27T23:46:37.581Z,18.60
2022-08-27T23:49:06.552Z,18.60
2022-08-27T23:51:33.994Z,18.60
2022-08-27T23:54:04.688Z,18.60
2022-08-27T23:56:32.446Z,18.70
2022-08-27T23:59:01.966Z,18.70
